createdAt,value
2022-12-20T00:02:55.376Z,79.50
2022-12-20T00:05:58.403Z,79.17
2022-12-20T00:09:03.393Z,78.74
2022-12-20T00:12:06.424Z,78.83
2022-12-20T00:15:09.960Z,79.20
2022-12-20T00:18:12.511Z,79.36
2022-12-20T00:21:15.779Z,79.55
2022-12-20T00:24:25.883Z,79.69
2022-12-20T00:27:29.137Z,80.01
2022-12-20T00:30:31.762Z,80.05
2022-12-20T00:33:34.584Z,80.39
2022-12-20T00:36:37.289Z,80.63
2022-12-20T00:39:41.283Z,80.81
2022-12-20T00:42:43.820Z,80.22
2022-12-20T00:45:46.398Z,80.38
2022-12-20T00:48:49.051Z,79.88
2022-12-20T00:51:51.681Z,80.02
2022-12-20T00:54:55.638Z,79.48
2022-12-20T00:57:58.084Z,79.43
2022-12-20T01:01:00.852Z,79.10
2022-12-20T01:04:04.376Z,79.29
2022-12-20T01:07:06.971Z,79.09
2022-12-20T01:10:12.107Z,78.92
2022-12-20T01:13:14.849Z,78.87
2022-12-20T01:16:19.896Z,78.64
2022-12-20T01:19:22.639Z,78.58
2022-12-20T01:22:25.344Z,78.82
2022-12-20T01:25:29.412Z,78.28
2022-12-20T01:28:33.096Z,78.68
2022-12-20T01:31:36.621Z,78.43
2022-12-20T01:34:39.394Z,78.86
2022-12-20T01:37:42.063Z,79.19
2022-12-20T01:40:46.058Z,79.12
2022-12-20T01:43:52.054Z,78.75
2022-12-20T01:46:55.537Z,78.46
2022-12-20T01:50:00.033Z,78.51
2022-12-20T01:53:04.235Z,78.48
2022-12-20T01:56:08.971Z,78.42
2022-12-20T01:59:12.318Z,78.81
2022-12-20T02:02:15.207Z,78.60
2022-12-20T02:05:20.206Z,78.37
2022-12-20T02:08:22.844Z,78.40
2022-12-20T02:11:47.485Z,78.46
2022-12-20T02:15:06.708Z,78.35
2022-12-20T02:18:18.108Z,78.51
2022-12-20T02:21:29.423Z,78.86
2022-12-20T02:24:49.054Z,78.60
2022-12-20T02:28:00.865Z,78.57
2022-12-20T02:31:08.892Z,78.52
2022-12-20T02:34:12.196Z,78.67
2022-12-20T02:37:14.856Z,79.33
2022-12-20T02:40:19.870Z,79.69
2022-12-20T02:43:37.447Z,79.89
2022-12-20T02:46:41.738Z,79.95
2022-12-20T02:49:45.819Z,79.47
2022-12-20T02:52:48.753Z,79.49
2022-12-20T02:55:55.707Z,79.41
2022-12-20T02:59:04.063Z,79.32
2022-12-20T03:02:08.833Z,79.72
2022-12-20T03:05:11.685Z,79.54
2022-12-20T03:08:14.297Z,79.13
2022-12-20T03:11:16.907Z,79.37
2022-12-20T03:14:19.761Z,79.06
2022-12-20T03:17:26.660Z,78.87
2022-12-20T03:20:29.331Z,78.79
2022-12-20T03:23:32.166Z,78.57
2022-12-20T03:26:34.819Z,78.51
2022-12-20T03:29:37.378Z,78.25
2022-12-20T03:32:41.486Z,77.95
2022-12-20T03:35:44.077Z,77.93
2022-12-20T03:38:47.236Z,78.14
2022-12-20T03:41:49.856Z,78.14
2022-12-20T03:44:52.539Z,78.21
2022-12-20T03:47:56.568Z,78.08
2022-12-20T03:50:59.088Z,77.83
2022-12-20T03:54:01.716Z,77.24
2022-12-20T03:57:04.434Z,77.50
2022-12-20T04:00:08.477Z,78.51
2022-12-20T04:03:12.638Z,78.04
2022-12-20T04:06:15.878Z,78.03
2022-12-20T04:09:18.822Z,77.62
2022-12-20T04:12:22.038Z,77.97
2022-12-20T04:15:24.748Z,77.87
2022-12-20T04:18:29.582Z,78.00
2022-12-20T04:21:33.782Z,77.42
2022-12-20T04:24:36.391Z,77.31
2022-12-20T04:27:38.961Z,77.47
2022-12-20T04:30:41.623Z,77.42
2022-12-20T04:33:46.266Z,77.69
2022-12-20T04:36:48.870Z,77.70
2022-12-20T04:39:51.448Z,77.65
2022-12-20T04:42:54.019Z,76.90
2022-12-20T04:45:57.339Z,76.59
2022-12-20T04:49:02.786Z,76.85
2022-12-20T04:52:19.828Z,76.82
2022-12-20T04:55:23.122Z,77.05
2022-12-20T04:58:25.762Z,76.88
2022-12-20T05:01:28.557Z,77.51
2022-12-20T05:04:37.339Z,77.35
2022-12-20T05:07:40.521Z,76.90
2022-12-20T05:10:43.465Z,77.19
2022-12-20T05:13:46.154Z,77.02
2022-12-20T05:16:48.910Z,76.69
2022-12-20T05:19:52.872Z,77.00
2022-12-20T05:23:13.114Z,76.79
2022-12-20T05:26:18.648Z,76.58
2022-12-20T05:29:21.310Z,76.29
2022-12-20T05:32:23.900Z,76.66
2022-12-20T05:35:28.046Z,76.26
2022-12-20T05:38:31.402Z,75.87
2022-12-20T05:41:34.332Z,75.92
2022-12-20T05:44:37.082Z,76.19
2022-12-20T05:47:39.602Z,76.11
2022-12-20T05:50:45.192Z,75.83
2022-12-20T05:53:47.829Z,75.81
2022-12-20T05:56:50.384Z,76.17
2022-12-20T05:59:53.098Z,76.11
2022-12-20T06:02:55.951Z,76.60
2022-12-20T06:06:00.124Z,77.00
2022-12-20T06:09:02.939Z,77.37
2022-12-20T06:12:06.448Z,77.28
2022-12-20T06:15:10.832Z,77.55
2022-12-20T06:18:13.732Z,77.40
2022-12-20T06:21:17.957Z,77.30
2022-12-20T06:24:21.403Z,77.58
2022-12-20T06:27:24.130Z,76.88
2022-12-20T06:30:33.414Z,76.79
2022-12-20T06:33:36.631Z,76.82
2022-12-20T06:36:40.923Z,77.02
2022-12-20T06:39:43.619Z,76.52
2022-12-20T06:42:46.267Z,76.95
2022-12-20T06:45:48.849Z,77.21
2022-12-20T06:48:51.511Z,77.04
2022-12-20T06:51:56.280Z,78.16
2022-12-20T06:54:58.884Z,77.20
2022-12-20T06:58:01.473Z,76.59
2022-12-20T07:01:04.220Z,77.60
2022-12-20T07:04:06.888Z,77.58
2022-12-20T07:07:11.059Z,76.97
2022-12-20T07:10:14.005Z,76.31
2022-12-20T07:13:16.871Z,76.48
2022-12-20T07:16:19.530Z,76.25
2022-12-20T07:19:22.783Z,76.62
2022-12-20T07:22:26.741Z,76.30
2022-12-20T07:25:29.712Z,76.50
2022-12-20T07:28:32.718Z,75.96
2022-12-20T07:31:35.616Z,76.21
2022-12-20T07:34:38.620Z,76.43
2022-12-20T07:37:42.743Z,75.83
2022-12-20T07:40:45.395Z,75.69
2022-12-20T07:43:48.332Z,75.33
2022-12-20T07:46:51.155Z,75.04
2022-12-20T07:49:54.153Z,74.97
2022-12-20T07:52:58.878Z,74.03
2022-12-20T07:56:02.443Z,74.74
2022-12-20T07:59:05.330Z,74.64
2022-12-20T08:02:09.094Z,73.32
2022-12-20T08:05:11.638Z,73.93
2022-12-20T08:08:16.700Z,73.42
2022-12-20T08:11:19.918Z,72.74
2022-12-20T08:14:22.816Z,72.59
2022-12-20T08:17:25.545Z,72.34
2022-12-20T08:20:28.248Z,72.56
2022-12-20T08:23:32.186Z,72.48
2022-12-20T08:26:38.994Z,71.90
2022-12-20T08:29:41.731Z,71.42
2022-12-20T08:32:44.416Z,72.00
2022-12-20T08:35:47.362Z,70.82
2022-12-20T08:38:51.278Z,70.96
2022-12-20T08:41:53.917Z,71.36
2022-12-20T08:44:56.732Z,71.15
2022-12-20T08:47:59.393Z,71.03
2022-12-20T08:51:03.656Z,70.50
2022-12-20T08:54:08.460Z,69.51
2022-12-20T08:57:11.178Z,68.22
2022-12-20T09:00:15.080Z,67.25
2022-12-20T09:03:18.073Z,66.65
2022-12-20T09:06:22.426Z,66.47
2022-12-20T09:09:26.456Z,66.65
2022-12-20T09:12:29.113Z,67.29
2022-12-20T09:15:31.860Z,67.14
2022-12-20T09:18:35.390Z,66.56
2022-12-20T09:21:38.007Z,65.92
2022-12-20T09:24:42.012Z,65.67
2022-12-20T09:27:45.089Z,65.47
2022-12-20T09:30:47.777Z,66.53
2022-12-20T09:33:51.192Z,65.68
2022-12-20T09:36:53.799Z,65.11
2022-12-20T09:39:58.172Z,65.58
2022-12-20T09:43:01.137Z,65.34
2022-12-20T09:46:05.187Z,65.46
2022-12-20T09:49:08.066Z,66.11
2022-12-20T09:52:42.087Z,65.01
2022-12-20T09:55:54.052Z,63.96
2022-12-20T09:59:00.982Z,63.11
2022-12-20T10:02:19.524Z,63.04
2022-12-20T10:05:34.266Z,62.46
2022-12-20T10:08:46.344Z,63.39
2022-12-20T10:11:59.271Z,63.65
2022-12-20T10:15:09.587Z,63.79
2022-12-20T10:18:23.104Z,62.99
2022-12-20T10:21:31.525Z,63.09
2022-12-20T10:24:35.762Z,63.62
2022-12-20T10:27:41.854Z,63.65
2022-12-20T10:30:45.297Z,62.94
2022-12-20T10:33:48.047Z,63.23
2022-12-20T10:36:52.530Z,63.05
2022-12-20T10:39:55.217Z,62.81
2022-12-20T10:42:59.614Z,63.01
2022-12-20T10:46:05.047Z,63.37
2022-12-20T10:49:32.784Z,63.83
2022-12-20T10:52:35.447Z,63.98
2022-12-20T10:55:40.103Z,64.08
2022-12-20T10:58:44.384Z,64.85
2022-12-20T11:01:48.623Z,65.16
2022-12-20T11:05:00.438Z,64.76
2022-12-20T11:11:33.334Z,63.48
2022-12-20T11:14:39.895Z,63.05
2022-12-20T11:17:46.531Z,62.96
2022-12-20T11:20:55.531Z,62.83
2022-12-20T11:24:04.401Z,62.94
2022-12-20T11:27:19.629Z,62.60
2022-12-20T11:30:27.167Z,63.21
2022-12-20T11:33:38.192Z,62.80
2022-12-20T11:37:03.512Z,62.84
2022-12-20T11:40:20.303Z,62.51
2022-12-20T11:44:08.133Z,62.58
2022-12-20T11:47:26.907Z,62.50
2022-12-20T11:50:45.496Z,63.14
2022-12-20T11:53:53.663Z,63.63
2022-12-20T11:57:01.633Z,64.41
2022-12-20T12:00:06.506Z,64.20
2022-12-20T12:03:15.215Z,64.68
2022-12-20T12:06:21.822Z,64.95
2022-12-20T12:09:28.204Z,64.76
2022-12-20T12:12:34.297Z,65.26
2022-12-20T12:15:41.963Z,65.42
2022-12-20T12:18:46.298Z,65.74
2022-12-20T12:21:51.413Z,64.80
2022-12-20T12:24:56.272Z,65.51
2022-12-20T12:27:59.338Z,65.04
2022-12-20T12:31:06.956Z,65.08
2022-12-20T12:34:20.367Z,64.93
2022-12-20T12:37:49.953Z,64.91
2022-12-20T12:41:34.020Z,64.75
2022-12-20T12:44:45.646Z,63.35
2022-12-20T12:47:51.210Z,62.84
2022-12-20T12:50:57.588Z,61.88
2022-12-20T12:54:13.617Z,62.68
2022-12-20T12:57:17.653Z,61.56
2022-12-20T13:00:50.735Z,60.83
2022-12-20T13:04:24.319Z,61.15
2022-12-20T13:07:31.040Z,60.74
2022-12-20T13:11:01.076Z,60.45
2022-12-20T13:14:36.077Z,61.29
2022-12-20T13:17:51.482Z,61.69
2022-12-20T13:21:19.899Z,61.89
2022-12-20T13:24:53.166Z,62.07
2022-12-20T13:28:34.347Z,61.45
2022-12-20T13:31:38.410Z,61.29
2022-12-20T13:34:55.496Z,62.71
2022-12-20T13:38:01.920Z,63.05
2022-12-20T13:41:13.015Z,63.28
2022-12-20T13:44:42.633Z,63.14
2022-12-20T13:47:49.605Z,62.87
2022-12-20T13:50:53.153Z,63.77
2022-12-20T13:53:57.269Z,63.86
2022-12-20T13:57:00.054Z,64.22
2022-12-20T14:00:07.789Z,63.70
2022-12-20T14:03:20.895Z,63.86
2022-12-20T14:06:27.143Z,63.87
2022-12-20T14:09:33.959Z,64.29
2022-12-20T14:12:37.233Z,63.99
2022-12-20T14:15:41.085Z,63.00
2022-12-20T14:18:49.595Z,62.79
2022-12-20T14:21:52.379Z,62.06
2022-12-20T14:24:55.287Z,62.41
2022-12-20T14:27:58.774Z,62.43
2022-12-20T14:31:03.492Z,62.95
2022-12-20T14:34:13.793Z,63.03
2022-12-20T14:37:28.960Z,62.81
2022-12-20T14:40:31.642Z,63.91
2022-12-20T14:43:37.645Z,64.19
2022-12-20T14:46:46.916Z,63.76
2022-12-20T14:49:56.055Z,64.19
2022-12-20T14:52:59.011Z,64.63
2022-12-20T14:56:01.689Z,64.70
2022-12-20T14:59:15.791Z,65.27
2022-12-20T15:02:41.111Z,65.80
2022-12-20T15:05:48.218Z,66.26
2022-12-20T15:08:50.936Z,65.83
2022-12-20T15:11:54.151Z,66.41
2022-12-20T15:15:03.691Z,65.83
2022-12-20T15:18:21.697Z,65.72
2022-12-20T15:21:29.652Z,66.62
2022-12-20T15:24:33.388Z,66.52
2022-12-20T15:27:35.913Z,67.33
2022-12-20T15:30:38.583Z,67.36
2022-12-20T15:33:42.955Z,67.86
2022-12-20T15:36:47.103Z,68.19
2022-12-20T15:39:49.793Z,68.29
2022-12-20T15:42:52.863Z,68.64
2022-12-20T15:45:55.743Z,68.10
2022-12-20T15:48:58.750Z,68.46
2022-12-20T15:52:02.649Z,68.52
2022-12-20T15:55:07.026Z,68.09
2022-12-20T15:58:09.956Z,67.42
2022-12-20T16:01:15.469Z,67.88
2022-12-20T16:04:19.765Z,67.39
2022-12-20T16:07:24.173Z,68.19
2022-12-20T16:10:26.748Z,68.06
2022-12-20T16:13:29.360Z,68.49
2022-12-20T16:16:34.178Z,68.44
2022-12-20T16:19:36.788Z,68.88
2022-12-20T16:22:40.645Z,68.61
2022-12-20T16:25:43.216Z,68.76
2022-12-20T16:28:47.833Z,68.45
2022-12-20T16:31:51.487Z,68.75
2022-12-20T16:34:54.137Z,69.21
2022-12-20T16:37:59.328Z,68.81
2022-12-20T16:41:12.464Z,68.87
2022-12-20T16:44:16.529Z,69.46
2022-12-20T16:47:19.184Z,69.17
2022-12-20T16:50:23.435Z,69.38
2022-12-20T16:53:27.318Z,70.23
2022-12-20T16:56:30.565Z,70.31
2022-12-20T16:59:33.255Z,70.29
2022-12-20T17:02:36.176Z,69.87
2022-12-20T17:05:39.604Z,69.66
2022-12-20T17:12:06.497Z,69.59
2022-12-20T17:15:16.901Z,69.87
2022-12-20T17:18:19.429Z,69.27
2022-12-20T17:21:26.327Z,69.36
2022-12-20T17:24:30.493Z,69.09
2022-12-20T17:27:33.291Z,69.07
2022-12-20T17:30:35.932Z,68.36
2022-12-20T17:33:38.636Z,68.46
2022-12-20T17:36:41.205Z,68.42
2022-12-20T17:39:45.220Z,68.23
2022-12-20T17:42:47.981Z,68.00
2022-12-20T17:45:50.689Z,67.20
2022-12-20T17:48:53.522Z,66.91
2022-12-20T17:51:57.088Z,66.46
2022-12-20T17:55:00.996Z,66.63
2022-12-20T17:58:03.683Z,66.11
2022-12-20T18:01:06.740Z,66.14
2022-12-20T18:04:11.649Z,66.63
2022-12-20T18:07:14.458Z,66.42
2022-12-20T18:10:18.532Z,66.29
2022-12-20T18:13:21.360Z,66.27
2022-12-20T18:16:26.221Z,66.51
2022-12-20T18:19:29.243Z,66.56
2022-12-20T18:22:33.908Z,66.57
2022-12-20T18:25:37.894Z,66.61
2022-12-20T18:28:42.658Z,67.41
2022-12-20T18:31:45.388Z,67.33
2022-12-20T18:34:48.809Z,67.40
2022-12-20T18:37:51.492Z,67.18
2022-12-20T18:40:55.494Z,67.93
2022-12-20T18:43:59.871Z,67.56
2022-12-20T18:47:03.846Z,67.87
2022-12-20T18:50:08.082Z,67.59
2022-12-20T18:53:10.922Z,67.54
2022-12-20T18:56:16.923Z,67.72
2022-12-20T18:59:21.172Z,67.94
2022-12-20T19:02:23.857Z,68.32
2022-12-20T19:05:26.621Z,68.06
2022-12-20T19:08:30.140Z,68.81
2022-12-20T19:11:34.517Z,68.30
2022-12-20T19:14:37.750Z,68.32
2022-12-20T19:17:40.363Z,68.65
2022-12-20T19:20:43.421Z,68.36
2022-12-20T19:23:47.715Z,68.31
2022-12-20T19:26:51.729Z,68.19
2022-12-20T19:29:54.505Z,68.25
2022-12-20T19:32:57.132Z,67.92
2022-12-20T19:35:59.868Z,68.24
2022-12-20T19:39:03.531Z,68.38
2022-12-20T19:42:23.547Z,68.67
2022-12-20T19:45:27.224Z,68.56
2022-12-20T19:48:30.286Z,68.74
2022-12-20T19:51:33.272Z,69.21
2022-12-20T19:54:36.138Z,69.45
2022-12-20T19:57:40.426Z,69.20
2022-12-20T20:00:43.739Z,69.32
2022-12-20T20:03:46.618Z,69.66
2022-12-20T20:06:49.185Z,69.63
2022-12-20T20:09:51.788Z,69.27
2022-12-20T20:12:55.714Z,69.58
2022-12-20T20:15:59.864Z,69.80
2022-12-20T20:19:02.640Z,69.51
2022-12-20T20:22:06.568Z,69.57
2022-12-20T20:25:09.924Z,69.47
2022-12-20T20:28:14.212Z,69.47
2022-12-20T20:31:17.958Z,68.78
2022-12-20T20:34:21.720Z,68.44
2022-12-20T20:37:31.796Z,69.55
2022-12-20T20:40:35.437Z,69.44
2022-12-20T20:43:40.149Z,70.06
2022-12-20T20:46:43.679Z,70.51
2022-12-20T20:49:47.165Z,71.80
2022-12-20T20:52:56.043Z,71.63
2022-12-20T20:55:58.827Z,72.65
2022-12-20T20:59:08.120Z,72.38
2022-12-20T21:02:14.732Z,72.14
2022-12-20T21:08:40.981Z,73.64
2022-12-20T21:11:43.838Z,74.29
2022-12-20T21:15:20.869Z,74.60
2022-12-20T21:18:10.512Z,75.14
2022-12-20T21:21:13.944Z,74.66
2022-12-20T21:24:16.869Z,74.49
2022-12-20T21:27:19.985Z,75.01
2022-12-20T21:30:24.127Z,75.10
2022-12-20T21:33:26.696Z,75.25
2022-12-20T21:36:29.405Z,75.33
2022-12-20T21:39:31.971Z,75.96
2022-12-20T21:42:34.505Z,76.89
2022-12-20T21:45:38.350Z,76.98
2022-12-20T21:48:41.488Z,77.12
2022-12-20T21:51:43.994Z,76.56
2022-12-20T21:54:46.545Z,76.60
2022-12-20T21:57:49.143Z,77.08
2022-12-20T22:00:54.987Z,77.94
2022-12-20T22:04:00.109Z,78.38
2022-12-20T22:07:02.683Z,78.59
2022-12-20T22:10:05.764Z,78.75
2022-12-20T22:13:08.376Z,79.39
2022-12-20T22:16:15.360Z,79.47
2022-12-20T22:19:18.103Z,79.82
2022-12-20T22:22:21.063Z,79.64
2022-12-20T22:25:24.222Z,79.60
2022-12-20T22:28:26.804Z,79.86
2022-12-20T22:31:31.408Z,79.16
2022-12-20T22:34:34.412Z,79.38
2022-12-20T22:37:36.988Z,79.38
2022-12-20T22:40:39.473Z,79.14
2022-12-20T22:43:43.141Z,79.17
2022-12-20T22:46:46.876Z,78.80
2022-12-20T22:49:49.464Z,79.45
2022-12-20T22:52:52.258Z,78.87
2022-12-20T22:55:55.208Z,78.68
2022-12-20T22:58:57.823Z,79.13
2022-12-20T23:02:04.738Z,79.24
2022-12-20T23:05:08.461Z,79.23
2022-12-20T23:08:10.876Z,78.61
2022-12-20T23:11:35.720Z,78.00
2022-12-20T23:15:01.753Z,78.86
2022-12-20T23:18:07.799Z,78.23
2022-12-20T23:21:28.539Z,77.84
2022-12-20T23:24:31.201Z,77.58
2022-12-20T23:27:33.987Z,77.01
2022-12-20T23:30:36.558Z,77.73
2022-12-20T23:33:40.674Z,77.66
2022-12-20T23:36:43.272Z,77.11
2022-12-20T23:39:45.829Z,76.58
2022-12-20T23:42:48.639Z,76.81
2022-12-20T23:45:51.258Z,76.29
2022-12-20T23:48:55.168Z,76.50
2022-12-20T23:51:57.820Z,76.81
2022-12-20T23:55:00.504Z,76.38
2022-12-20T23:58:03.054Z,76.88
